Hovedside
METAR-TAF:

METAR-TAF

Lufthavner :

Dallas-Fort Worth internasjonale lufthavn

Dallas / Fort Worth, Texas, USA

breddegrad: 32-53-49N, lengdegrad: 097-01-19W, høyde over havet: 183 m

Gjeldene værobservasjon

Denne rapporten ble laget for 1 time og 0 minutter siden, klokken 16:53 UTC
Vind 3 kt fra Øst
Temperatur 17°C
Luftfuktighet 42%
Trykk 1027 hPa
Sikt: 16.1 km
Få skyer i en høyde av 25000 ft
Få skyer i en høyde av 30000 ft

METAR: KDFW 211653Z 10003KT 10SM FEW250 FEW300 17/04 A3034 RMK AO2 SLP270 T01720044

Tid: 12:53 (17:53 UTC)

Varsel

Denne rapporten ble laget for 33 minutter siden, klokken 17:20 UTC
Varsel gyldig fra 21. klokken 18 UTC til 22. klokken 24 UTC
Vind 7 kt fra Øst
Sikt: 10 km
Spredte skyer i en høyde av 25000 ft
Fra 22. klokken 0300 UTC
Vind 5 kt fra Sørøst
Sikt: 10 km
Spredte skyer i en høyde av 10000 ft
Brutte skyer i en høyde av 20000 ft

TAF: KDFW 211720Z 2118/2224 10007KT P6SM SCT250 FM220300 14005KT P6SM SCT100 BKN200

Værobservasjoner og værvarsel for over 4000 flyplasser (METAR- og TAF-rapporter).

Tilgjengelige stasjoner er representert av de røde og gule prikkene på kartet.

Hold musepekeren over prikken for å se navnet på stasjonen.

Klikk så for å se værobservasjoner og -varsler.

For å forandre kartet kan du klikke på den grønne knappen med svart kryss for å zoome inn, på den grønne knappen med strek for å zoome ut, eller på de grønne pilene for å se tilstøtende kart.


METAR-TAF: